createdAt,value
2022-08-01T00:00:10.424Z,68.75
2022-08-01T00:02:58.840Z,69.01
2022-08-01T00:05:27.126Z,70.23
2022-08-01T00:07:55.195Z,70.61
2022-08-01T00:10:23.769Z,70.70
2022-08-01T00:12:51.914Z,70.72
2022-08-01T00:15:20.025Z,70.79
2022-08-01T00:17:48.146Z,71.13
2022-08-01T00:20:16.241Z,71.25
2022-08-01T00:22:44.302Z,71.12
2022-08-01T00:25:12.395Z,71.63
2022-08-01T00:27:40.691Z,71.36
2022-08-01T00:30:13.119Z,71.76
2022-08-01T00:32:43.538Z,71.60
2022-08-01T00:35:12.449Z,71.61
2022-08-01T00:37:40.743Z,71.49
2022-08-01T00:40:09.440Z,71.60
2022-08-01T00:42:42.929Z,71.80
2022-08-01T00:45:12.939Z,72.06
2022-08-01T00:47:41.034Z,72.99
2022-08-01T00:50:10.013Z,72.82
2022-08-01T00:52:40.273Z,72.81
2022-08-01T00:55:09.079Z,72.87
2022-08-01T00:58:03.302Z,73.04
2022-08-01T01:00:30.494Z,73.27
2022-08-01T01:03:01.194Z,73.40
2022-08-01T01:05:29.363Z,73.45
2022-08-01T01:08:05.461Z,73.41
2022-08-01T01:10:49.515Z,73.89
2022-08-01T01:13:30.176Z,75.71
2022-08-01T01:16:07.463Z,75.59
2022-08-01T01:18:47.835Z,74.38
2022-08-01T01:21:18.867Z,73.97
2022-08-01T01:24:13.121Z,74.20
2022-08-01T01:27:16.609Z,74.87
2022-08-01T01:29:58.897Z,74.74
2022-08-01T01:32:38.610Z,75.14
2022-08-01T01:35:16.921Z,76.23
2022-08-01T01:37:48.205Z,76.04
2022-08-01T01:40:18.280Z,76.36
2022-08-01T01:42:48.649Z,76.31
2022-08-01T01:45:17.907Z,76.50
2022-08-01T01:47:47.333Z,76.14
2022-08-01T01:50:16.211Z,76.05
2022-08-01T01:52:47.155Z,76.16
2022-08-01T01:55:16.638Z,76.19
2022-08-01T01:57:45.967Z,76.61
2022-08-01T02:00:15.677Z,78.08
2022-08-01T02:02:45.645Z,78.70
2022-08-01T02:05:14.757Z,79.95
2022-08-01T02:07:44.925Z,80.26
2022-08-01T02:10:14.309Z,80.52
2022-08-01T02:12:46.668Z,80.78
2022-08-01T02:15:15.803Z,80.69
2022-08-01T02:17:48.598Z,80.37
2022-08-01T02:20:17.737Z,80.85
2022-08-01T02:22:52.399Z,80.90
2022-08-01T02:26:11.007Z,80.59
2022-08-01T02:28:48.917Z,81.20
2022-08-01T02:31:22.621Z,82.11
2022-08-01T02:34:01.096Z,82.34
2022-08-01T02:36:33.398Z,82.43
2022-08-01T02:39:05.970Z,82.44
2022-08-01T02:41:37.240Z,82.34
2022-08-01T02:44:08.110Z,82.54
2022-08-01T02:46:42.718Z,82.38
2022-08-01T02:49:12.396Z,82.14
2022-08-01T02:51:41.898Z,82.54
2022-08-01T02:54:12.393Z,82.41
2022-08-01T02:56:42.086Z,82.13
2022-08-01T02:59:16.333Z,81.75
2022-08-01T03:01:51.298Z,82.00
2022-08-01T03:04:21.305Z,82.05
2022-08-01T03:06:49.858Z,81.92
2022-08-01T03:09:19.517Z,81.84
2022-08-01T03:11:50.408Z,82.13
2022-08-01T03:14:21.515Z,81.99
2022-08-01T03:16:52.750Z,82.03
2022-08-01T03:19:24.175Z,81.91
2022-08-01T03:21:53.392Z,81.63
2022-08-01T03:24:24.788Z,81.85
2022-08-01T03:26:55.117Z,81.85
2022-08-01T03:29:26.827Z,81.82
2022-08-01T03:31:56.477Z,82.00
2022-08-01T03:34:24.709Z,81.75
2022-08-01T03:37:00.811Z,81.93
2022-08-01T03:39:35.079Z,81.96
2022-08-01T03:42:09.198Z,82.09
2022-08-01T03:44:40.337Z,82.08
2022-08-01T03:47:10.243Z,82.02
2022-08-01T03:49:43.975Z,82.23
2022-08-01T03:52:13.760Z,82.46
2022-08-01T03:54:47.604Z,82.56
2022-08-01T03:57:20.196Z,82.81
2022-08-01T04:00:10.503Z,83.37
2022-08-01T04:02:42.699Z,83.74
2022-08-01T04:05:11.581Z,84.52
2022-08-01T04:07:44.956Z,84.59
2022-08-01T04:10:13.039Z,84.92
2022-08-01T04:12:41.166Z,85.57
2022-08-01T04:15:09.458Z,85.49
2022-08-01T04:17:37.886Z,86.06
2022-08-01T04:20:06.658Z,86.17
2022-08-01T04:22:35.222Z,86.59
2022-08-01T04:25:12.498Z,86.92
2022-08-01T04:27:49.667Z,87.44
2022-08-01T04:30:28.281Z,87.78
2022-08-01T04:33:00.439Z,88.07
2022-08-01T04:36:03.856Z,88.45
2022-08-01T04:38:24.055Z,88.57
2022-08-01T04:40:53.599Z,88.41
2022-08-01T04:43:22.241Z,87.88
2022-08-01T04:45:52.722Z,87.44
2022-08-01T04:48:23.158Z,86.97
2022-08-01T04:50:52.606Z,86.99
2022-08-01T04:53:24.453Z,87.03
2022-08-01T04:55:52.538Z,87.23
2022-08-01T04:58:20.558Z,87.10
2022-08-01T05:00:48.832Z,86.80
2022-08-01T05:03:17.300Z,86.52
2022-08-01T05:05:45.518Z,86.31
2022-08-01T05:08:13.699Z,86.52
2022-08-01T05:10:41.767Z,86.50
2022-08-01T05:13:10.384Z,86.36
2022-08-01T05:15:38.856Z,86.20
2022-08-01T05:18:08.651Z,85.77
2022-08-01T05:20:38.366Z,85.40
2022-08-01T05:23:06.652Z,84.85
2022-08-01T05:25:56.711Z,84.25
2022-08-01T05:28:25.887Z,84.45
2022-08-01T05:30:56.199Z,83.91
2022-08-01T05:33:24.662Z,83.31
2022-08-01T05:35:52.892Z,83.31
2022-08-01T05:38:21.125Z,83.86
2022-08-01T05:40:49.281Z,84.07
2022-08-01T05:43:17.568Z,84.24
2022-08-01T05:45:47.123Z,84.04
2022-08-01T05:48:15.363Z,83.97
2022-08-01T05:50:43.643Z,83.61
2022-08-01T05:53:11.737Z,83.60
2022-08-01T05:55:39.992Z,83.84
2022-08-01T05:58:08.139Z,83.62
2022-08-01T06:00:41.258Z,83.60
2022-08-01T06:03:09.361Z,83.16
2022-08-01T06:05:37.623Z,83.45
2022-08-01T06:08:05.766Z,83.03
2022-08-01T06:10:33.843Z,82.98
2022-08-01T06:13:04.248Z,82.76
2022-08-01T06:15:33.748Z,82.39
2022-08-01T06:18:02.159Z,82.01
2022-08-01T06:20:30.612Z,82.05
2022-08-01T06:22:59.777Z,82.22
2022-08-01T06:25:29.127Z,81.64
2022-08-01T06:27:57.168Z,81.41
2022-08-01T06:30:25.131Z,81.38
2022-08-01T06:32:53.503Z,81.46
2022-08-01T06:35:21.738Z,80.20
2022-08-01T06:37:50.201Z,79.94
2022-08-01T06:40:18.974Z,79.31
2022-08-01T06:42:49.831Z,78.99
2022-08-01T06:45:18.175Z,79.27
2022-08-01T06:47:48.870Z,78.87
2022-08-01T06:50:19.747Z,78.81
2022-08-01T06:52:47.818Z,78.73
2022-08-01T06:55:16.009Z,78.20
2022-08-01T06:57:52.746Z,77.82
2022-08-01T07:00:26.699Z,78.01
2022-08-01T07:02:57.172Z,77.47
2022-08-01T07:05:25.277Z,76.71
2022-08-01T07:07:53.505Z,76.33
2022-08-01T07:10:21.604Z,75.44
2022-08-01T07:12:49.680Z,75.35
2022-08-01T07:15:17.793Z,75.77
2022-08-01T07:17:45.933Z,74.22
2022-08-01T07:20:16.190Z,73.79
2022-08-01T07:22:47.636Z,73.29
2022-08-01T07:25:16.642Z,72.82
2022-08-01T07:27:45.646Z,73.37
2022-08-01T07:30:14.070Z,72.96
2022-08-01T07:32:42.193Z,72.99
2022-08-01T07:35:10.664Z,72.72
2022-08-01T07:37:47.949Z,72.81
2022-08-01T07:40:19.255Z,72.70
2022-08-01T07:42:48.394Z,72.12
2022-08-01T07:45:16.422Z,72.19
2022-08-01T07:47:44.881Z,72.17
2022-08-01T07:50:13.953Z,72.49
2022-08-01T07:52:42.485Z,72.19
2022-08-01T07:55:12.213Z,72.11
2022-08-01T07:57:45.225Z,71.65
2022-08-01T08:00:14.533Z,71.65
2022-08-01T08:02:48.211Z,71.16
2022-08-01T08:05:58.740Z,70.95
2022-08-01T08:08:07.936Z,71.19
2022-08-01T08:10:36.000Z,71.35
2022-08-01T08:13:04.123Z,70.94
2022-08-01T08:15:32.206Z,70.55
2022-08-01T08:18:01.835Z,69.68
2022-08-01T08:20:30.376Z,68.96
2022-08-01T08:22:59.793Z,67.76
2022-08-01T08:25:30.015Z,67.04
2022-08-01T08:27:58.044Z,66.33
2022-08-01T08:30:25.994Z,66.11
2022-08-01T08:32:53.992Z,65.77
2022-08-01T08:35:23.196Z,64.43
2022-08-01T08:38:08.864Z,63.89
2022-08-01T08:40:42.097Z,63.37
2022-08-01T08:43:11.152Z,62.59
2022-08-01T08:45:58.222Z,62.31
2022-08-01T08:48:28.326Z,62.05
2022-08-01T08:50:58.958Z,61.41
2022-08-01T08:53:34.630Z,61.50
2022-08-01T08:56:14.144Z,60.79
2022-08-01T08:58:44.768Z,59.74
2022-08-01T09:01:13.747Z,58.18
2022-08-01T09:03:42.096Z,57.21
2022-08-01T09:06:10.944Z,57.00
2022-08-01T09:08:39.018Z,57.52
2022-08-01T09:11:09.285Z,57.01
2022-08-01T09:13:37.673Z,56.31
2022-08-01T09:16:18.676Z,55.85
2022-08-01T09:18:53.512Z,55.25
2022-08-01T09:21:29.366Z,55.49
2022-08-01T09:24:03.977Z,54.89
2022-08-01T09:26:37.348Z,53.54
2022-08-01T09:29:08.051Z,52.62
2022-08-01T09:31:48.937Z,52.06
2022-08-01T09:34:25.000Z,51.61
2022-08-01T09:37:01.311Z,51.00
2022-08-01T09:39:32.635Z,50.56
2022-08-01T09:42:03.049Z,49.57
2022-08-01T09:44:55.158Z,49.20
2022-08-01T09:47:39.118Z,48.43
2022-08-01T09:50:10.981Z,47.68
2022-08-01T09:52:41.148Z,47.57
2022-08-01T09:55:10.722Z,46.81
2022-08-01T09:57:39.885Z,46.35
2022-08-01T10:00:35.761Z,46.53
2022-08-01T10:03:27.339Z,46.30
2022-08-01T10:05:55.482Z,45.50
2022-08-01T10:08:26.353Z,45.79
2022-08-01T10:11:12.225Z,45.75
2022-08-01T10:13:42.162Z,45.96
2022-08-01T10:16:13.937Z,45.33
2022-08-01T10:18:56.067Z,45.60
2022-08-01T10:21:54.701Z,45.03
2022-08-01T10:24:15.489Z,44.41
2022-08-01T10:26:50.311Z,45.02
2022-08-01T10:29:46.446Z,45.36
2022-08-01T10:32:18.578Z,45.19
2022-08-01T10:34:52.030Z,45.06
2022-08-01T10:37:20.365Z,45.03
2022-08-01T10:39:48.547Z,45.00
2022-08-01T10:42:16.775Z,45.46
2022-08-01T10:44:58.739Z,45.69
2022-08-01T10:47:57.270Z,45.15
2022-08-01T10:50:32.484Z,45.05
2022-08-01T10:53:23.971Z,45.44
2022-08-01T10:56:02.673Z,45.22
2022-08-01T10:58:44.229Z,45.21
2022-08-01T11:01:30.264Z,45.47
2022-08-01T11:04:02.790Z,45.29
2022-08-01T11:06:34.919Z,45.40
2022-08-01T11:09:06.224Z,45.68
2022-08-01T11:12:12.814Z,45.93
2022-08-01T11:15:00.055Z,45.58
2022-08-01T11:17:54.608Z,45.39
2022-08-01T11:20:27.549Z,45.80
2022-08-01T11:22:58.746Z,46.55
2022-08-01T11:26:05.147Z,47.48
2022-08-01T11:28:28.467Z,47.61
2022-08-01T11:31:07.580Z,47.59
2022-08-01T11:33:49.416Z,47.68
2022-08-01T11:36:22.207Z,47.91
2022-08-01T11:38:59.872Z,48.01
2022-08-01T11:41:38.234Z,48.23
2022-08-01T11:44:09.334Z,48.98
2022-08-01T11:46:49.833Z,48.93
2022-08-01T11:49:38.882Z,48.25
2022-08-01T11:52:13.583Z,47.46
2022-08-01T11:54:58.279Z,46.92
2022-08-01T11:57:34.002Z,46.07
2022-08-01T12:00:16.973Z,44.51
2022-08-01T12:02:59.085Z,44.32
2022-08-01T12:05:31.401Z,44.62
2022-08-01T12:07:59.700Z,44.87
2022-08-01T12:10:34.066Z,44.72
2022-08-01T12:13:04.519Z,44.45
2022-08-01T12:15:36.504Z,44.14
2022-08-01T12:18:08.261Z,43.81
2022-08-01T12:20:42.826Z,44.20
2022-08-01T12:23:22.473Z,44.14
2022-08-01T12:25:54.234Z,44.09
2022-08-01T12:28:22.634Z,43.28
2022-08-01T12:30:50.764Z,43.08
2022-08-01T12:33:20.353Z,43.10
2022-08-01T12:35:49.071Z,43.45
2022-08-01T12:38:24.095Z,43.36
2022-08-01T12:40:53.147Z,43.06
2022-08-01T12:43:29.403Z,43.10
2022-08-01T12:46:01.041Z,43.05
2022-08-01T12:48:32.190Z,42.79
2022-08-01T12:51:02.422Z,42.53
2022-08-01T12:53:40.476Z,42.36
2022-08-01T12:56:13.833Z,42.42
2022-08-01T12:58:41.892Z,42.38
2022-08-01T13:01:11.970Z,42.63
2022-08-01T13:03:41.365Z,43.00
2022-08-01T13:06:16.602Z,43.05
2022-08-01T13:08:46.279Z,43.24
2022-08-01T13:11:17.712Z,43.52
2022-08-01T13:13:52.888Z,43.62
2022-08-01T13:16:31.162Z,43.97
2022-08-01T13:19:07.358Z,44.13
2022-08-01T13:21:52.710Z,44.18
2022-08-01T13:24:28.735Z,44.70
2022-08-01T13:27:04.831Z,45.35
2022-08-01T13:29:39.530Z,45.55
2022-08-01T13:32:28.736Z,45.69
2022-08-01T13:35:06.890Z,46.05
2022-08-01T13:37:34.986Z,46.02
2022-08-01T13:40:08.332Z,45.64
2022-08-01T13:42:36.501Z,46.03
2022-08-01T13:45:14.749Z,45.70
2022-08-01T13:48:03.794Z,45.92
2022-08-01T13:50:34.232Z,46.39
2022-08-01T13:53:02.828Z,46.47
2022-08-01T13:55:34.977Z,46.62
2022-08-01T13:58:04.144Z,46.86
2022-08-01T14:00:32.384Z,46.96
2022-08-01T14:03:00.461Z,47.20
2022-08-01T14:05:28.564Z,46.92
2022-08-01T14:07:56.880Z,46.79
2022-08-01T14:10:25.755Z,45.89
2022-08-01T14:12:56.790Z,45.45
2022-08-01T14:15:38.189Z,44.94
2022-08-01T14:18:10.055Z,44.31
2022-08-01T14:20:39.952Z,44.60
2022-08-01T14:23:08.534Z,44.21
2022-08-01T14:26:03.388Z,44.21
2022-08-01T14:28:31.265Z,43.99
2022-08-01T14:30:59.957Z,43.21
2022-08-01T14:33:28.612Z,43.14
2022-08-01T14:36:06.526Z,43.16
2022-08-01T14:38:46.442Z,43.15
2022-08-01T14:41:17.993Z,42.90
2022-08-01T14:43:46.323Z,41.99
2022-08-01T14:46:14.556Z,41.20
2022-08-01T14:48:43.552Z,41.17
2022-08-01T14:51:11.656Z,41.08
2022-08-01T14:53:42.968Z,41.17
2022-08-01T14:56:15.349Z,40.88
2022-08-01T14:58:43.350Z,40.93
2022-08-01T15:01:11.497Z,40.94
2022-08-01T15:03:39.691Z,40.87
2022-08-01T15:06:07.752Z,41.04
2022-08-01T15:08:35.924Z,41.30
2022-08-01T15:11:04.084Z,41.63
2022-08-01T15:13:32.862Z,41.69
2022-08-01T15:16:01.390Z,41.66
2022-08-01T15:18:29.802Z,41.55
2022-08-01T15:20:58.548Z,41.47
2022-08-01T15:23:26.827Z,41.41
2022-08-01T15:25:54.971Z,41.36
2022-08-01T15:28:23.331Z,41.07
2022-08-01T15:30:51.389Z,40.75
2022-08-01T15:33:19.575Z,40.98
2022-08-01T15:35:47.654Z,41.49
2022-08-01T15:38:18.104Z,41.42
2022-08-01T15:40:46.197Z,41.12
2022-08-01T15:43:15.714Z,40.80
2022-08-01T15:45:48.380Z,41.23
2022-08-01T15:48:18.045Z,41.50
2022-08-01T15:50:46.331Z,41.67
2022-08-01T15:53:14.490Z,41.83
2022-08-01T15:55:46.628Z,42.16
2022-08-01T15:58:21.037Z,42.11
2022-08-01T16:00:49.102Z,42.00
2022-08-01T16:03:17.609Z,42.09
2022-08-01T16:05:46.242Z,42.01
2022-08-01T16:08:14.451Z,42.34
2022-08-01T16:10:43.443Z,43.17
2022-08-01T16:13:12.926Z,43.61
2022-08-01T16:15:41.356Z,43.84
2022-08-01T16:18:13.196Z,44.13
2022-08-01T16:20:45.371Z,44.16
2022-08-01T16:23:15.466Z,44.17
2022-08-01T16:25:44.936Z,44.46
2022-08-01T16:28:14.462Z,44.69
2022-08-01T16:30:48.771Z,44.64
2022-08-01T16:33:45.738Z,44.90
2022-08-01T16:36:23.376Z,45.49
2022-08-01T16:38:53.326Z,45.94
2022-08-01T16:41:21.758Z,46.04
2022-08-01T16:43:53.269Z,46.23
2022-08-01T16:46:25.378Z,46.49
2022-08-01T16:48:54.578Z,46.92
2022-08-01T16:51:22.861Z,47.22
2022-08-01T16:53:50.906Z,47.63
2022-08-01T16:56:19.178Z,47.91
2022-08-01T16:58:47.304Z,48.16
2022-08-01T17:01:59.659Z,48.61
2022-08-01T17:04:03.431Z,48.99
2022-08-01T17:06:31.595Z,49.41
2022-08-01T17:08:59.663Z,49.76
2022-08-01T17:11:27.702Z,50.30
2022-08-01T17:13:55.681Z,50.68
2022-08-01T17:16:23.793Z,51.33
2022-08-01T17:18:51.866Z,51.79
2022-08-01T17:21:20.204Z,52.08
2022-08-01T17:23:48.149Z,52.45
2022-08-01T17:26:16.308Z,52.96
2022-08-01T17:28:44.332Z,53.44
2022-08-01T17:31:12.327Z,53.76
2022-08-01T17:33:46.060Z,54.15
2022-08-01T17:36:18.174Z,54.66
2022-08-01T17:38:50.982Z,54.96
2022-08-01T17:41:19.021Z,55.35
2022-08-01T17:43:47.030Z,55.32
2022-08-01T17:46:15.268Z,55.77
2022-08-01T17:48:44.565Z,55.89
2022-08-01T17:51:12.983Z,56.15
2022-08-01T17:53:57.423Z,56.50
2022-08-01T17:56:29.039Z,56.47
2022-08-01T17:58:57.324Z,57.03
2022-08-01T18:01:26.888Z,56.82
2022-08-01T18:03:58.565Z,57.20
2022-08-01T18:06:26.806Z,57.19
2022-08-01T18:08:56.499Z,57.34
2022-08-01T18:11:27.476Z,57.63
2022-08-01T18:13:57.105Z,58.05
2022-08-01T18:16:30.270Z,58.11
2022-08-01T18:18:58.420Z,58.09
2022-08-01T18:21:26.519Z,58.79
2022-08-01T18:23:54.549Z,58.99
2022-08-01T18:26:22.858Z,58.99
2022-08-01T18:28:51.079Z,59.43
2022-08-01T18:31:20.873Z,60.01
2022-08-01T18:33:49.927Z,60.25
2022-08-01T18:36:41.795Z,60.58
2022-08-01T18:39:13.605Z,61.04
2022-08-01T18:41:42.342Z,60.72
2022-08-01T18:44:37.002Z,60.94
2022-08-01T18:47:05.587Z,61.37
2022-08-01T18:49:34.412Z,61.22
2022-08-01T18:52:02.450Z,61.50
2022-08-01T18:54:31.288Z,61.53
2022-08-01T18:56:59.251Z,61.57
2022-08-01T18:59:27.391Z,61.85
2022-08-01T19:01:55.491Z,62.44
2022-08-01T19:04:23.717Z,63.04
2022-08-01T19:06:51.819Z,63.28
2022-08-01T19:09:20.524Z,63.85
2022-08-01T19:11:49.464Z,63.49
2022-08-01T19:14:17.802Z,63.52
2022-08-01T19:16:45.825Z,64.54
2022-08-01T19:19:14.418Z,64.38
2022-08-01T19:21:56.506Z,64.11
2022-08-01T19:24:25.920Z,65.16
2022-08-01T19:26:57.349Z,65.24
2022-08-01T19:29:35.764Z,65.96
2022-08-01T19:32:07.023Z,66.02
2022-08-01T19:35:01.770Z,66.24
2022-08-01T19:37:31.162Z,67.01
2022-08-01T19:40:00.132Z,67.11
2022-08-01T19:42:30.500Z,67.21
2022-08-01T19:44:59.383Z,67.74
2022-08-01T19:47:50.969Z,67.90
2022-08-01T19:50:15.574Z,68.86
2022-08-01T19:52:45.398Z,69.17
2022-08-01T19:55:14.831Z,69.96
2022-08-01T19:57:47.448Z,69.53
2022-08-01T20:00:23.909Z,69.07
2022-08-01T20:02:57.195Z,69.26
2022-08-01T20:05:26.036Z,70.30
2022-08-01T20:07:54.473Z,70.54
2022-08-01T20:10:22.715Z,70.53
2022-08-01T20:12:50.812Z,70.57
2022-08-01T20:15:19.204Z,70.98
2022-08-01T20:17:47.227Z,71.42
2022-08-01T20:20:15.404Z,71.71
2022-08-01T20:22:46.005Z,71.79
2022-08-01T20:25:14.452Z,72.44
2022-08-01T20:27:44.707Z,72.29
2022-08-01T20:30:13.047Z,72.07
2022-08-01T20:32:41.599Z,72.54
2022-08-01T20:35:10.327Z,72.76
2022-08-01T20:38:03.373Z,72.84
2022-08-01T20:40:30.400Z,73.48
2022-08-01T20:42:58.795Z,73.42
2022-08-01T20:45:27.707Z,74.04
2022-08-01T20:47:56.378Z,73.75
2022-08-01T20:50:54.373Z,74.63
2022-08-01T20:53:24.482Z,74.54
2022-08-01T20:56:06.774Z,74.44
2022-08-01T20:58:38.320Z,74.25
2022-08-01T21:01:09.245Z,74.13
2022-08-01T21:03:53.799Z,74.36
2022-08-01T21:06:29.678Z,75.18
2022-08-01T21:09:02.643Z,75.51
2022-08-01T21:11:50.074Z,75.18
2022-08-01T21:14:26.048Z,75.12
2022-08-01T21:17:03.873Z,75.72
2022-08-01T21:19:34.629Z,75.85
2022-08-01T21:22:20.089Z,76.04
2022-08-01T21:25:03.488Z,76.48
2022-08-01T21:27:34.280Z,76.68
2022-08-01T21:30:08.354Z,76.23
2022-08-01T21:32:37.726Z,75.99
2022-08-01T21:35:15.817Z,76.06
2022-08-01T21:37:50.022Z,76.40
2022-08-01T21:40:23.156Z,76.97
2022-08-01T21:42:53.932Z,77.20
2022-08-01T21:45:27.300Z,77.21
2022-08-01T21:47:57.403Z,77.22
2022-08-01T21:50:25.968Z,77.44
2022-08-01T21:53:09.174Z,77.01
2022-08-01T21:56:14.553Z,78.43
2022-08-01T21:59:04.060Z,79.11
2022-08-01T22:01:51.558Z,78.83
2022-08-01T22:04:33.115Z,78.60
2022-08-01T22:07:03.120Z,78.58
2022-08-01T22:09:33.051Z,78.21
2022-08-01T22:12:06.180Z,78.13
2022-08-01T22:14:40.439Z,78.07
2022-08-01T22:17:13.295Z,77.95
2022-08-01T22:19:45.405Z,78.08
2022-08-01T22:22:51.910Z,77.73
2022-08-01T22:25:04.818Z,77.24
2022-08-01T22:28:05.555Z,77.60
2022-08-01T22:30:21.558Z,77.73
2022-08-01T22:33:15.115Z,77.39
2022-08-01T22:35:39.951Z,77.50
2022-08-01T22:38:09.921Z,78.13
2022-08-01T22:40:44.826Z,78.65
2022-08-01T22:43:39.007Z,79.24
2022-08-01T22:46:39.385Z,79.17
2022-08-01T22:49:16.674Z,79.03
2022-08-01T22:51:55.694Z,79.16
2022-08-01T22:54:41.922Z,78.84
2022-08-01T22:57:24.433Z,78.69
2022-08-01T23:00:04.198Z,78.71
2022-08-01T23:02:36.716Z,79.03
2022-08-01T23:05:06.546Z,79.02
2022-08-01T23:07:40.038Z,79.38
2022-08-01T23:10:09.339Z,80.12
2022-08-01T23:12:37.584Z,80.32
2022-08-01T23:15:06.415Z,80.04
2022-08-01T23:17:35.260Z,79.98
2022-08-01T23:20:07.263Z,80.15
2022-08-01T23:22:37.599Z,80.37
2022-08-01T23:25:12.004Z,80.92
2022-08-01T23:28:04.620Z,80.78
2022-08-01T23:30:33.439Z,80.51
2022-08-01T23:33:02.859Z,80.43
2022-08-01T23:35:31.352Z,80.29
2022-08-01T23:38:02.197Z,80.25
2022-08-01T23:40:32.850Z,79.83
2022-08-01T23:43:02.581Z,80.18
2022-08-01T23:46:02.901Z,80.13
2022-08-01T23:48:19.480Z,80.73
2022-08-01T23:50:47.591Z,81.37
2022-08-01T23:53:15.645Z,81.39
2022-08-01T23:55:44.311Z,81.40
2022-08-01T23:58:12.616Z,81.70
